Time;durP1;ratioP1;P1;durP2;ratioP2;P2;SDS_P1;SDS_P2;PMS_P1;PMS_P2;Temp;Humidity;BMP_temperature;BMP_pressure;BME280_temperature;BME280_humidity;BME280_pressure;Samples;Min_cycle;Max_cycle;Signal;HPM_P1;HPM_P2
2022/01/14 00:01:39;;;;;;;82.32;34.15;;;-4.80;99.90;;;;;;4140503;28;20096;-48
2022/01/14 00:03:40;;;;;;;81.53;33.22;;;-4.80;99.90;;;;;;4139779;28;20096;-54
2022/01/14 00:05:42;;;;;;;79.78;33.35;;;-4.80;99.90;;;;;;4127441;28;20038;-54
2022/01/14 00:07:43;;;;;;;86.93;31.85;;;-4.80;99.90;;;;;;4125345;28;20093;-56
2022/01/14 00:09:44;;;;;;;85.47;34.38;;;-4.70;99.90;;;;;;4125184;28;20042;-54
2022/01/14 00:11:50;;;;;;;86.32;33.63;;;-4.70;99.90;;;;;;4125658;28;20438;-53
2022/01/14 00:15:52;;;;;;;86.60;33.42;;;-4.60;99.90;;;;;;4125373;28;20034;-54
2022/01/14 00:17:54;;;;;;;84.80;32.30;;;-4.50;99.90;;;;;;4125251;28;20042;-57
2022/01/14 00:19:56;;;;;;;80.40;33.25;;;-4.50;99.90;;;;;;4132494;28;20021;-54
2022/01/14 00:21:58;;;;;;;81.68;31.95;;;-4.50;99.90;;;;;;4141172;28;20084;-56
2022/01/14 00:24:09;;;;;;;87.47;33.03;;;-4.50;99.90;;;;;;4141609;28;20088;-54
2022/01/14 00:33:09;;;;;;;82.93;32.53;;;-4.40;99.90;;;;;;4126156;28;20092;-57
2022/01/14 00:35:11;;;;;;;89.47;31.50;;;-4.40;99.90;;;;;;4125302;28;20030;-52
2022/01/14 00:37:14;;;;;;;79.88;32.35;;;-4.40;99.90;;;;;;4124712;28;20093;-54
2022/01/14 00:39:16;;;;;;;82.30;32.00;;;-4.40;99.90;;;;;;4124765;28;20097;-54
2022/01/14 00:41:17;;;;;;;85.70;32.53;;;-4.40;99.90;;;;;;4125177;28;20030;-51
2022/01/14 00:43:18;;;;;;;83.22;33.38;;;-4.30;99.90;;;;;;4124892;28;20085;-54
2022/01/14 00:45:20;;;;;;;84.18;33.05;;;-4.30;99.90;;;;;;4124736;28;20542;-54
2022/01/14 00:47:21;;;;;;;89.00;34.55;;;-4.40;99.90;;;;;;4129536;28;20089;-53
2022/01/14 00:49:22;;;;;;;81.40;31.88;;;-4.40;99.90;;;;;;4141528;28;20084;-50
2022/01/14 00:51:24;;;;;;;91.45;34.25;;;-4.50;99.90;;;;;;4140702;28;20099;-52
2022/01/14 00:53:25;;;;;;;88.80;35.28;;;-4.50;99.90;;;;;;4141415;28;20046;-52
2022/01/14 00:55:41;;;;;;;94.88;34.35;;;-4.50;99.90;;;;;;4140868;28;20034;-53
2022/01/14 00:59:59;;;;;;;79.85;32.83;;;-4.60;99.90;;;;;;4140184;28;20080;-52
2022/01/14 01:02:01;;;;;;;83.38;35.28;;;-4.60;99.90;;;;;;4131591;28;20038;-54
2022/01/14 01:04:02;;;;;;;95.65;34.92;;;-4.60;99.90;;;;;;4124434;28;20030;-54
2022/01/14 01:06:07;;;;;;;89.00;34.58;;;-4.60;99.90;;;;;;4125852;28;20030;-51
2022/01/14 01:08:11;;;;;;;87.25;34.38;;;-4.60;99.90;;;;;;4124115;28;20050;-50
2022/01/14 01:10:13;;;;;;;95.18;37.28;;;-4.60;99.90;;;;;;4124976;28;20101;-54
2022/01/14 01:12:27;;;;;;;87.80;33.38;;;-4.50;99.90;;;;;;4124785;28;20061;-55
2022/01/14 01:14:39;;;;;;;87.25;36.42;;;-4.60;99.90;;;;;;4122602;28;20030;-50
2022/01/14 01:16:41;;;;;;;91.57;36.55;;;-4.60;99.90;;;;;;4124456;28;20093;-56
2022/01/14 01:18:42;;;;;;;89.43;37.20;;;-4.60;99.90;;;;;;4139310;28;20552;-53
2022/01/14 01:20:43;;;;;;;88.55;33.72;;;-4.60;99.90;;;;;;4140116;28;20038;-54
2022/01/14 01:22:53;;;;;;;93.38;36.17;;;-4.50;99.90;;;;;;4140678;28;20700;-54
2022/01/14 01:24:56;;;;;;;99.93;33.40;;;-4.50;99.90;;;;;;4140576;28;20457;-53
2022/01/14 01:26:57;;;;;;;83.93;32.00;;;-4.50;99.90;;;;;;4141106;28;20092;-53
2022/01/14 01:29:29;;;;;;;83.78;33.83;;;-4.50;99.90;;;;;;4140777;28;20046;-58
2022/01/14 01:31:37;;;;;;;83.53;32.03;;;-4.60;99.90;;;;;;4140091;28;20026;-53
2022/01/14 01:33:38;;;;;;;92.78;35.33;;;-4.60;99.90;;;;;;4139306;28;20096;-54
2022/01/14 01:35:39;;;;;;;86.68;33.95;;;-4.50;99.90;;;;;;4140363;28;20069;-56
2022/01/14 01:37:43;;;;;;;86.63;33.83;;;-4.50;99.90;;;;;;4139279;28;20453;-56
2022/01/14 01:39:44;;;;;;;84.97;34.08;;;-4.60;99.90;;;;;;4123547;28;20097;-55
2022/01/14 01:41:49;;;;;;;89.57;33.13;;;-4.60;99.90;;;;;;4123783;28;20022;-54
2022/01/14 01:43:52;;;;;;;86.13;34.38;;;-4.50;99.90;;;;;;4123720;28;20069;-55
2022/01/14 01:45:55;;;;;;;76.82;32.42;;;-4.50;99.90;;;;;;4124479;28;20030;-56
2022/01/14 01:47:56;;;;;;;80.90;32.63;;;-4.50;99.90;;;;;;4137181;28;20532;-55
2022/01/14 01:49:57;;;;;;;82.93;32.35;;;-4.60;99.90;;;;;;4139058;28;20038;-55
2022/01/14 01:51:59;;;;;;;83.80;33.85;;;-4.50;99.90;;;;;;4137937;28;20030;-56
2022/01/14 01:54:00;;;;;;;82.47;33.55;;;-4.50;99.90;;;;;;4137998;28;20080;-58
2022/01/14 01:56:02;;;;;;;84.07;33.38;;;-4.50;99.90;;;;;;4139607;28;20560;-56
2022/01/14 01:58:03;;;;;;;81.90;33.45;;;-4.60;99.90;;;;;;4140689;28;20033;-59
2022/01/14 02:00:06;;;;;;;90.78;33.97;;;-4.60;99.90;;;;;;4140119;28;20033;-55
2022/01/14 02:02:07;;;;;;;90.18;34.33;;;-4.60;99.90;;;;;;4139905;28;20060;-55
2022/01/14 02:04:08;;;;;;;98.00;37.03;;;-4.60;99.90;;;;;;4140185;28;20037;-55
2022/01/14 02:06:09;;;;;;;98.55;38.42;;;-4.60;99.90;;;;;;4140088;28;20017;-57
2022/01/14 02:08:11;;;;;;;97.65;39.13;;;-4.60;99.90;;;;;;4137963;28;20108;-57
2022/01/14 02:10:12;;;;;;;91.07;37.15;;;-4.60;99.90;;;;;;4139520;28;20038;-54
2022/01/14 02:12:14;;;;;;;88.25;37.53;;;-4.70;99.90;;;;;;4139774;28;20117;-56
2022/01/14 02:14:40;;;;;;;88.63;35.58;;;-4.70;99.90;;;;;;4139088;28;20554;-60
2022/01/14 02:17:11;;;;;;;88.47;33.70;;;-4.70;99.90;;;;;;4139031;28;20450;-57
2022/01/14 02:19:25;;;;;;;90.88;37.08;;;-4.70;99.90;;;;;;4139363;28;20084;-48
2022/01/14 02:23:52;;;;;;;92.82;35.70;;;-4.50;99.90;;;;;;4123880;28;20159;-55
2022/01/14 02:25:53;;;;;;;89.20;34.40;;;-4.50;99.90;;;;;;4123086;28;20100;-56
2022/01/14 02:28:02;;;;;;;91.75;35.22;;;-4.50;99.90;;;;;;4123986;28;20980;-52
2022/01/14 02:30:05;;;;;;;88.78;35.00;;;-4.50;99.90;;;;;;4123479;28;20038;-54
2022/01/14 02:32:07;;;;;;;82.70;34.92;;;-4.50;99.90;;;;;;4123084;28;20371;-57
2022/01/14 02:34:10;;;;;;;83.75;33.10;;;-4.50;99.90;;;;;;4123349;28;20494;-55
2022/01/14 02:36:12;;;;;;;84.75;33.92;;;-4.50;99.90;;;;;;4122947;28;20100;-52
2022/01/14 02:38:14;;;;;;;83.68;37.25;;;-4.60;99.90;;;;;;4122090;28;20468;-55
2022/01/14 02:40:16;;;;;;;89.97;37.22;;;-4.60;99.90;;;;;;4124142;28;20038;-54
2022/01/14 02:42:17;;;;;;;96.20;38.33;;;-4.60;99.90;;;;;;4139381;28;20453;-61
2022/01/14 02:44:25;;;;;;;88.55;36.63;;;-4.60;99.90;;;;;;4139220;28;20523;-56
2022/01/14 02:46:26;;;;;;;94.47;37.13;;;-4.70;99.90;;;;;;4139271;28;20030;-54
2022/01/14 02:48:29;;;;;;;90.88;36.15;;;-4.70;99.90;;;;;;4139494;28;20083;-55
2022/01/14 02:51:10;;;;;;;89.95;37.10;;;-4.70;99.90;;;;;;4132699;28;20038;-54
2022/01/14 02:53:01;;;;;;;94.40;38.05;;;-4.70;99.90;;;;;;4123053;28;20030;-52
2022/01/14 02:55:14;;;;;;;95.18;36.33;;;-4.70;99.90;;;;;;4123566;28;20023;-55
2022/01/14 02:57:17;;;;;;;98.20;36.20;;;-4.70;99.90;;;;;;4125775;28;20115;-57
2022/01/14 02:59:20;;;;;;;89.57;36.42;;;-4.70;99.90;;;;;;4139865;28;20104;-52
2022/01/14 03:01:24;;;;;;;79.80;32.58;;;-4.60;99.90;;;;;;4138737;28;20041;-57
2022/01/14 03:03:26;;;;;;;88.38;32.75;;;-4.60;99.90;;;;;;4139596;28;20046;-58
2022/01/14 03:05:33;;;;;;;76.53;29.90;;;-4.60;99.90;;;;;;4139034;28;20084;-56
2022/01/14 03:07:36;;;;;;;79.80;30.85;;;-4.60;99.90;;;;;;4139405;28;20077;-57
2022/01/14 03:09:37;;;;;;;84.40;31.10;;;-4.60;99.90;;;;;;4139058;28;20084;-54
2022/01/14 03:11:48;;;;;;;80.80;31.63;;;-4.60;99.90;;;;;;4139435;28;20500;-56
2022/01/14 03:13:49;;;;;;;77.40;31.08;;;-4.60;99.90;;;;;;4139411;28;20108;-55
2022/01/14 03:15:50;;;;;;;71.68;28.30;;;-4.60;99.90;;;;;;4137192;28;20842;-52
2022/01/14 03:17:51;;;;;;;80.10;31.63;;;-4.60;99.90;;;;;;4139476;28;20120;-54
2022/01/14 03:19:52;;;;;;;80.00;29.27;;;-4.50;99.90;;;;;;4140350;28;20089;-55
2022/01/14 03:26:35;;;;;;;;;;;-4.50;99.90;;;;;;4121581;28;19910;-54
2022/01/14 03:28:36;;;;;;;;;;;-4.50;99.90;;;;;;4121263;28;19920;-57
2022/01/14 03:30:37;;;;;;;;;;;-4.50;99.90;;;;;;4123127;28;20466;-54
2022/01/14 03:32:39;;;;;;;;;;;-4.50;99.90;;;;;;4124484;28;19925;-53
2022/01/14 03:34:41;;;;;;;68.78;22.67;;;-4.50;99.90;;;;;;4122887;28;19937;-55
2022/01/14 03:36:42;;;;;;;70.80;26.80;;;-4.50;99.90;;;;;;4122506;28;20135;-55
2022/01/14 03:38:43;;;;;;;71.95;26.42;;;-4.50;99.90;;;;;;4125194;28;20470;-55
2022/01/14 03:40:44;;;;;;;69.22;26.63;;;-4.50;99.90;;;;;;4125397;28;20484;-55
2022/01/14 03:42:45;;;;;;;65.90;26.58;;;-4.50;99.90;;;;;;4125955;28;20557;-56
2022/01/14 03:44:46;;;;;;;75.20;27.17;;;-4.50;99.90;;;;;;4125727;28;20050;-56
2022/01/14 03:46:48;;;;;;;71.63;26.60;;;-4.50;99.90;;;;;;4129373;28;20087;-52
2022/01/14 03:48:52;;;;;;;72.53;28.00;;;-4.40;99.90;;;;;;4141928;28;20050;-53
2022/01/14 03:50:53;;;;;;;71.38;28.00;;;-4.50;99.90;;;;;;4141872;28;20026;-54
2022/01/14 03:52:54;;;;;;;70.28;28.45;;;-4.40;99.90;;;;;;4141993;28;20042;-54
2022/01/14 03:54:55;;;;;;;74.25;30.05;;;-4.40;99.90;;;;;;4141399;28;20087;-58
2022/01/14 03:56:56;;;;;;;74.40;28.48;;;-4.40;99.90;;;;;;4141963;28;20544;-52
2022/01/14 03:58:57;;;;;;;76.30;28.90;;;-4.40;99.90;;;;;;4140920;28;20042;-50
2022/01/14 04:00:58;;;;;;;68.30;26.83;;;-4.40;99.90;;;;;;4129058;28;20042;-52
2022/01/14 04:03:00;;;;;;;68.22;26.48;;;-4.40;99.90;;;;;;4125835;28;20038;-54
2022/01/14 04:05:03;;;;;;;68.90;26.58;;;-4.40;99.90;;;;;;4131036;28;20486;-55
2022/01/14 04:07:04;;;;;;;73.13;27.30;;;-4.40;99.90;;;;;;4141460;28;20100;-53
2022/01/14 04:09:06;;;;;;;70.15;27.55;;;-4.40;99.90;;;;;;4141523;28;20429;-55
2022/01/14 04:11:08;;;;;;;71.13;27.33;;;-4.40;99.90;;;;;;4141305;28;20030;-52
2022/01/14 04:13:16;;;;;;;83.95;29.20;;;-4.40;99.90;;;;;;4141469;28;20018;-58
2022/01/14 04:15:42;;;;;;;65.30;26.83;;;-4.40;99.90;;;;;;4141467;28;20446;-54
2022/01/14 04:17:46;;;;;;;65.90;25.42;;;-4.40;99.90;;;;;;4141500;28;20038;-56
2022/01/14 04:19:47;;;;;;;65.43;25.42;;;-4.40;99.90;;;;;;4131604;28;20084;-53
2022/01/14 04:21:49;;;;;;;60.58;23.58;;;-4.40;99.90;;;;;;4125353;28;20034;-54
2022/01/14 04:23:50;;;;;;;71.43;26.05;;;-4.30;99.90;;;;;;4126712;28;20042;-56
2022/01/14 04:25:56;;;;;;;69.05;26.63;;;-4.30;99.90;;;;;;4133980;28;20034;-56
2022/01/14 04:27:57;;;;;;;61.22;24.77;;;-4.30;99.90;;;;;;4138154;28;20017;-55
2022/01/14 04:29:58;;;;;;;64.72;25.80;;;-4.30;99.90;;;;;;4138434;28;20030;-56
2022/01/14 04:32:02;;;;;;;62.88;24.27;;;-4.30;99.90;;;;;;4139492;28;20037;-57
2022/01/14 04:34:03;;;;;;;70.82;26.80;;;-4.30;99.90;;;;;;4141307;28;20076;-54
2022/01/14 04:36:05;;;;;;;75.82;27.27;;;-4.30;99.90;;;;;;4140907;28;20069;-58
2022/01/14 04:38:07;;;;;;;66.80;26.50;;;-4.20;99.90;;;;;;4140120;28;20030;-51
2022/01/14 04:40:09;;;;;;;72.28;26.70;;;-4.20;99.90;;;;;;4140465;28;20066;-57
2022/01/14 04:42:10;;;;;;;65.40;25.77;;;-4.20;99.90;;;;;;4140716;28;20084;-58
2022/01/14 04:44:11;;;;;;;69.15;27.23;;;-4.20;99.90;;;;;;4140766;28;20076;-53
2022/01/14 04:46:35;;;;;;;67.43;25.40;;;-4.20;99.90;;;;;;4140617;28;20107;-55
2022/01/14 04:48:36;;;;;;;;;;;-4.20;99.90;;;;;;4140874;28;20046;-52
2022/01/14 04:50:38;;;;;;;68.13;26.00;;;-4.10;99.90;;;;;;4140224;28;19913;-51
2022/01/14 04:52:41;;;;;;;63.67;25.13;;;-4.10;99.90;;;;;;4139921;28;20475;-55
2022/01/14 04:54:42;;;;;;;70.80;26.23;;;-4.10;99.90;;;;;;4137724;28;20076;-55
2022/01/14 04:56:43;;;;;;;61.95;24.15;;;-4.10;99.90;;;;;;4124932;28;20486;-56
2022/01/14 04:58:44;;;;;;;70.57;26.05;;;-4.00;99.90;;;;;;4124423;28;20108;-55
2022/01/14 05:00:48;;;;;;;67.05;24.98;;;-4.00;99.90;;;;;;4125480;28;20022;-55
2022/01/14 05:02:52;;;;;;;59.58;24.35;;;-4.00;99.90;;;;;;4124283;28;20046;-59
2022/01/14 05:04:56;;;;;;;56.00;23.08;;;-4.00;99.90;;;;;;4124491;28;20022;-56
2022/01/14 05:07:02;;;;;;;66.47;24.45;;;-4.00;99.90;;;;;;4124398;28;20572;-53
2022/01/14 05:09:15;;;;;;;68.20;26.02;;;-4.00;99.90;;;;;;4122594;28;20077;-57
2022/01/14 05:13:18;;;;;;;63.65;26.25;;;-4.00;99.90;;;;;;4124288;28;20088;-54
2022/01/14 05:15:19;;;;;;;58.33;23.23;;;-4.00;99.90;;;;;;4127997;28;20025;-52
2022/01/14 05:17:21;;;;;;;65.75;25.33;;;-4.00;99.90;;;;;;4131431;28;20038;-56
2022/01/14 05:19:22;;;;;;;65.03;24.75;;;-4.00;99.90;;;;;;4139271;28;20034;-54
2022/01/14 05:21:23;;;;;;;63.70;24.88;;;-4.00;99.90;;;;;;4136904;28;20037;-56
2022/01/14 05:23:24;;;;;;;60.33;23.92;;;-4.00;99.90;;;;;;4140298;28;20034;-54
2022/01/14 05:25:25;;;;;;;67.00;26.25;;;-4.00;99.90;;;;;;4137461;28;20027;-51
2022/01/14 05:27:26;;;;;;;64.22;24.90;;;-4.00;99.90;;;;;;4124723;28;20022;-54
2022/01/14 05:29:27;;;;;;;67.55;26.23;;;-3.90;99.90;;;;;;4123767;28;20077;-55
2022/01/14 05:31:48;;;;;;;60.92;26.25;;;-4.00;99.90;;;;;;4124130;28;20050;-56
2022/01/14 05:33:51;;;;;;;65.78;24.55;;;-4.00;99.90;;;;;;4122693;28;20042;-56
2022/01/14 05:35:52;;;;;;;66.85;25.52;;;-3.90;99.90;;;;;;4123863;28;20101;-57
2022/01/14 05:37:53;;;;;;;63.50;24.98;;;-3.90;99.90;;;;;;4123908;28;20564;-54
2022/01/14 05:39:57;;;;;;;78.90;29.02;;;-3.90;99.90;;;;;;4123846;28;20549;-57
2022/01/14 05:42:00;;;;;;;69.60;27.30;;;-4.00;99.90;;;;;;4123169;28;20026;-55
2022/01/14 05:44:02;;;;;;;66.75;24.42;;;-3.90;99.90;;;;;;4128542;28;20072;-52
2022/01/14 05:46:03;;;;;;;68.10;24.83;;;-3.90;99.90;;;;;;4124763;28;20030;-57
2022/01/14 05:48:06;;;;;;;65.93;25.35;;;-3.90;99.90;;;;;;4124121;28;20089;-58
2022/01/14 05:50:12;;;;;;;57.08;25.00;;;-3.90;99.90;;;;;;4123102;28;20046;-57
2022/01/14 05:52:13;;;;;;;63.03;24.27;;;-4.00;99.90;;;;;;4123791;28;20088;-57
2022/01/14 05:54:15;;;;;;;67.38;26.40;;;-4.00;99.90;;;;;;4124443;28;20479;-66
2022/01/14 05:56:16;;;;;;;73.30;26.48;;;-4.00;99.90;;;;;;4123232;28;20089;-50
2022/01/14 05:58:17;;;;;;;67.78;26.90;;;-4.00;99.90;;;;;;4123900;28;20030;-56
2022/01/14 06:00:24;;;;;;;61.65;25.35;;;-4.00;99.90;;;;;;4135069;28;20505;-59
2022/01/14 06:02:28;;;;;;;72.68;28.08;;;-4.00;99.90;;;;;;4122825;28;20568;-55
2022/01/14 06:04:31;;;;;;;67.32;27.60;;;-4.00;99.90;;;;;;4139040;28;20042;-57
2022/01/14 06:06:34;;;;;;;71.90;26.90;;;-4.10;99.90;;;;;;4139080;28;20949;-57
2022/01/14 06:08:36;;;;;;;60.15;25.02;;;-4.10;99.90;;;;;;4138012;28;20045;-51
2022/01/14 06:10:37;;;;;;;70.43;26.85;;;-4.10;99.90;;;;;;4139443;28;20050;-56
2022/01/14 06:12:38;;;;;;;70.50;26.55;;;-4.10;99.90;;;;;;4138604;28;20041;-54
2022/01/14 06:14:39;;;;;;;67.78;27.27;;;-4.10;99.90;;;;;;4137991;28;20030;-60
2022/01/14 06:16:42;;;;;;;61.05;25.27;;;-4.10;99.90;;;;;;4136957;28;20127;-54
2022/01/14 06:18:43;;;;;;;65.65;24.13;;;-4.10;99.90;;;;;;4139155;28;20104;-64
2022/01/14 06:20:46;;;;;;;68.55;27.80;;;-4.10;99.90;;;;;;4134705;28;20073;-56
2022/01/14 06:22:47;;;;;;;61.15;24.60;;;-4.10;99.90;;;;;;4122772;28;20089;-54
2022/01/14 06:24:49;;;;;;;67.90;26.25;;;-4.10;99.90;;;;;;4129468;28;20030;-58
2022/01/14 06:26:50;;;;;;;71.28;28.48;;;-4.10;99.90;;;;;;4122928;28;20053;-57
2022/01/14 06:28:51;;;;;;;77.47;29.33;;;-4.10;99.90;;;;;;4122391;28;20176;-57
2022/01/14 06:30:53;;;;;;;75.78;26.83;;;-4.10;99.90;;;;;;4122639;28;20093;-53
2022/01/14 06:32:56;;;;;;;74.63;28.30;;;-4.10;99.90;;;;;;4126867;28;20042;-57
2022/01/14 06:34:57;;;;;;;74.93;29.13;;;-4.10;99.90;;;;;;4122718;28;20120;-56
2022/01/14 06:37:02;;;;;;;80.75;30.05;;;-4.10;99.90;;;;;;4122712;28;20057;-59
2022/01/14 06:39:03;;;;;;;71.70;28.63;;;-4.10;99.90;;;;;;4122386;28;20076;-63
2022/01/14 06:41:05;;;;;;;73.13;28.48;;;-4.10;99.90;;;;;;4122264;28;20046;-54
2022/01/14 06:43:06;;;;;;;71.50;27.50;;;-4.10;99.90;;;;;;4122392;28;20071;-54
2022/01/14 06:45:08;;;;;;;70.65;28.08;;;-4.20;99.90;;;;;;4122307;28;20076;-57
2022/01/14 06:47:09;;;;;;;69.95;25.73;;;-4.20;99.90;;;;;;4122397;28;20030;-59
2022/01/14 06:49:10;;;;;;;73.63;27.80;;;-4.20;99.90;;;;;;4122870;28;20042;-65
2022/01/14 06:51:15;;;;;;;78.63;30.08;;;-4.20;99.90;;;;;;4122681;28;20093;-64
2022/01/14 06:53:16;;;;;;;78.97;29.73;;;-4.20;99.90;;;;;;4122764;28;20034;-66
2022/01/14 06:55:20;;;;;;;75.18;28.90;;;-4.20;99.90;;;;;;4122168;28;20390;-64
2022/01/14 06:57:23;;;;;;;73.18;28.40;;;-4.10;99.90;;;;;;4123131;28;20042;-55
2022/01/14 06:59:24;;;;;;;77.57;29.95;;;-4.10;99.90;;;;;;4122764;28;20047;-56
2022/01/14 07:01:25;;;;;;;80.72;30.00;;;-4.10;99.90;;;;;;4122448;28;20085;-54
2022/01/14 07:03:26;;;;;;;78.55;30.67;;;-4.00;99.90;;;;;;4122791;28;20750;-56
2022/01/14 07:05:31;;;;;;;79.80;29.35;;;-4.10;99.90;;;;;;4122966;28;20046;-57
2022/01/14 07:07:33;;;;;;;76.88;30.45;;;-4.00;99.90;;;;;;4122114;28;20506;-57
2022/01/14 07:09:35;;;;;;;82.47;29.48;;;-4.10;99.90;;;;;;4122618;28;20042;-58
2022/01/14 07:11:37;;;;;;;77.50;29.65;;;-4.00;99.90;;;;;;4122644;28;20112;-57
2022/01/14 07:13:38;;;;;;;89.07;36.70;;;-4.00;99.90;;;;;;4125469;28;20054;-57
2022/01/14 07:15:41;;;;;;;73.28;30.08;;;-4.00;99.90;;;;;;4125168;28;20405;-58
2022/01/14 07:17:43;;;;;;;73.13;29.88;;;-4.00;99.90;;;;;;4126061;28;20050;-57
2022/01/14 07:19:49;;;;;;;73.55;28.30;;;-3.90;99.90;;;;;;4126310;28;20100;-59
2022/01/14 07:21:51;;;;;;;84.60;30.92;;;-3.90;99.90;;;;;;4126017;28;20039;-60
2022/01/14 07:23:52;;;;;;;69.05;28.92;;;-4.00;99.90;;;;;;4125994;28;20042;-62
2022/01/14 07:25:53;;;;;;;84.15;33.22;;;-4.00;99.90;;;;;;4125822;28;21157;-58
2022/01/14 07:27:54;;;;;;;74.88;29.92;;;-4.00;99.90;;;;;;4126640;28;20490;-58
2022/01/14 07:29:55;;;;;;;83.47;33.30;;;-4.00;99.90;;;;;;4125043;28;20100;-57
2022/01/14 07:31:59;;;;;;;90.45;31.75;;;-4.00;99.90;;;;;;4126595;28;20085;-54
2022/01/14 07:34:00;;;;;;;87.97;33.10;;;-4.00;99.90;;;;;;4125604;28;20084;-57
2022/01/14 07:36:01;;;;;;;92.82;32.30;;;-4.00;99.90;;;;;;4125840;28;20084;-58
2022/01/14 07:38:02;;;;;;;93.05;33.95;;;-4.00;99.90;;;;;;4125398;28;20085;-59
2022/01/14 07:40:05;;;;;;;84.32;31.80;;;-3.90;99.90;;;;;;4125821;28;20372;-64
2022/01/14 07:42:09;;;;;;;88.40;33.05;;;-3.90;99.90;;;;;;4125882;28;20105;-57
2022/01/14 07:44:11;;;;;;;78.50;31.05;;;-3.90;99.90;;;;;;4126001;28;20542;-53
2022/01/14 07:46:14;;;;;;;76.82;29.83;;;-3.80;99.90;;;;;;4125574;28;20026;-57
2022/01/14 07:48:15;;;;;;;80.45;33.40;;;-3.90;99.90;;;;;;4125289;28;20089;-55
2022/01/14 07:50:17;;;;;;;84.53;30.73;;;-3.80;99.90;;;;;;4125344;28;20518;-58
2022/01/14 07:52:18;;;;;;;82.43;31.70;;;-3.80;99.90;;;;;;4125503;28;20022;-60
2022/01/14 07:54:19;;;;;;;77.32;31.02;;;-3.80;99.90;;;;;;4125543;28;20034;-57
2022/01/14 07:56:20;;;;;;;79.90;30.83;;;-3.70;99.90;;;;;;4125104;28;20438;-58
2022/01/14 07:58:22;;;;;;;83.97;29.95;;;-3.70;99.90;;;;;;4128693;28;20038;-55
2022/01/14 08:00:23;;;;;;;82.82;31.88;;;-3.70;99.90;;;;;;4137121;28;20363;-55
2022/01/14 08:02:25;;;;;;;87.00;31.95;;;-3.70;99.90;;;;;;4137925;28;20120;-58
2022/01/14 08:04:27;;;;;;;87.97;33.22;;;-3.60;99.90;;;;;;4141349;28;20030;-55
2022/01/14 08:06:31;;;;;;;88.43;32.70;;;-3.60;99.90;;;;;;4135887;28;20087;-56
2022/01/14 08:08:38;;;;;;;86.03;32.88;;;-3.60;99.90;;;;;;4135851;28;20116;-57
2022/01/14 08:10:39;;;;;;;81.72;31.40;;;-3.60;99.90;;;;;;4127726;28;20493;-57
2022/01/14 08:12:43;;;;;;;82.13;32.58;;;-3.60;99.90;;;;;;4141423;28;20088;-60
2022/01/14 08:14:45;;;;;;;84.60;33.72;;;-3.60;99.90;;;;;;4139992;28;20478;-58
2022/01/14 08:16:46;;;;;;;75.15;28.85;;;-3.60;99.90;;;;;;4136054;28;20106;-56
2022/01/14 08:18:48;;;;;;;84.97;30.27;;;-3.50;99.90;;;;;;4140104;28;20049;-59
2022/01/14 08:20:49;;;;;;;77.78;30.92;;;-3.50;99.90;;;;;;4124879;28;20104;-54
2022/01/14 08:22:50;;;;;;;73.45;28.73;;;-3.50;99.90;;;;;;4123956;28;20068;-56
2022/01/14 08:24:51;;;;;;;68.78;29.05;;;-3.60;99.90;;;;;;4124282;28;20325;-55
2022/01/14 08:26:52;;;;;;;70.18;28.65;;;-3.50;99.90;;;;;;4125538;28;20047;-53
2022/01/14 08:28:53;;;;;;;76.57;29.80;;;-3.60;99.90;;;;;;4125485;28;20034;-58
2022/01/14 08:30:54;;;;;;;66.40;27.60;;;-3.50;99.90;;;;;;4125699;28;20041;-64
2022/01/14 08:32:58;;;;;;;78.37;29.63;;;-3.50;99.90;;;;;;4135966;28;20085;-51
2022/01/14 08:34:59;;;;;;;73.72;29.27;;;-3.50;99.90;;;;;;4135124;28;20326;-56
2022/01/14 08:37:00;;;;;;;72.40;30.95;;;-3.50;99.90;;;;;;4128749;28;20092;-60
2022/01/14 08:39:01;;;;;;;76.55;30.98;;;-3.40;99.90;;;;;;4141088;28;20026;-58
2022/01/14 08:41:03;;;;;;;71.97;28.33;;;-3.40;99.90;;;;;;4135378;28;20042;-61
2022/01/14 08:43:04;;;;;;;73.93;29.73;;;-3.40;99.90;;;;;;4124899;28;20089;-63
2022/01/14 08:45:07;;;;;;;75.05;28.90;;;-3.30;99.90;;;;;;4125236;28;20101;-54
2022/01/14 08:47:09;;;;;;;72.25;28.30;;;-3.30;99.90;;;;;;4127882;28;20087;-52
2022/01/14 08:49:11;;;;;;;77.87;28.70;;;-3.30;99.90;;;;;;4140038;28;20516;-52
2022/01/14 08:51:12;;;;;;;66.60;29.48;;;-3.20;99.90;;;;;;4137066;28;20357;-59
2022/01/14 08:53:16;;;;;;;69.87;28.03;;;-3.20;99.90;;;;;;4128311;28;20700;-70
2022/01/14 08:55:18;;;;;;;75.95;31.48;;;-3.20;99.90;;;;;;4140044;28;20263;-58
2022/01/14 08:57:19;;;;;;;66.28;26.33;;;-3.20;99.90;;;;;;4141097;28;20391;-57
2022/01/14 08:59:20;;;;;;;67.07;25.83;;;-3.20;99.90;;;;;;4141247;28;20076;-56
2022/01/14 09:01:22;;;;;;;72.93;29.27;;;-3.20;99.90;;;;;;4140615;28;20271;-59
2022/01/14 09:03:23;;;;;;;77.85;30.00;;;-3.20;99.90;;;;;;4138461;28;20326;-57
2022/01/14 09:05:25;;;;;;;82.55;31.75;;;-3.10;99.90;;;;;;4129828;28;20026;-55
2022/01/14 09:07:28;;;;;;;75.50;31.60;;;-3.10;99.90;;;;;;4137384;28;20033;-56
2022/01/14 09:09:31;;;;;;;74.17;31.13;;;-3.00;99.90;;;;;;4139367;28;20104;-55
2022/01/14 09:11:34;;;;;;;101.27;36.63;;;-3.00;99.90;;;;;;4140183;28;21788;-54
2022/01/14 09:13:35;;;;;;;74.53;31.70;;;-3.00;99.90;;;;;;4139516;28;20363;-59
2022/01/14 09:15:36;;;;;;;89.53;35.25;;;-3.00;99.90;;;;;;4137180;28;20352;-60
2022/01/14 09:17:40;;;;;;;87.72;32.40;;;-3.00;99.90;;;;;;4137909;28;20123;-55
2022/01/14 09:19:41;;;;;;;81.50;33.15;;;-3.00;99.90;;;;;;4139894;28;20481;-59
2022/01/14 09:21:44;;;;;;;92.83;36.60;;;-2.90;99.90;;;;;;4138378;28;20034;-58
2022/01/14 09:24:03;;;;;;;90.90;35.00;;;-2.90;99.90;;;;;;4139753;28;20272;-60
2022/01/14 09:26:04;;;;;;;95.10;37.57;;;-2.90;99.90;;;;;;4139170;28;20421;-69
2022/01/14 09:28:07;;;;;;;89.53;36.13;;;-2.90;99.90;;;;;;4136235;28;20326;-57
2022/01/14 09:30:09;;;;;;;82.20;34.67;;;-2.90;99.90;;;;;;4140109;28;20362;-60
2022/01/14 09:32:10;;;;;;;89.03;33.70;;;-2.80;99.90;;;;;;4139985;28;20271;-60
2022/01/14 09:34:11;;;;;;;86.47;33.93;;;-2.80;99.90;;;;;;4140256;28;20503;-57
2022/01/14 09:36:15;;;;;;;75.50;30.70;;;-2.70;99.90;;;;;;4139159;28;20343;-55
2022/01/14 09:38:17;;;;;;;86.00;32.33;;;-2.60;99.90;;;;;;4127693;28;20676;-56
2022/01/14 09:40:18;;;;;;;82.30;33.95;;;-2.50;99.90;;;;;;4128555;28;20478;-59
2022/01/14 09:42:20;;;;;;;75.70;28.80;;;-2.50;99.90;;;;;;4139065;28;20030;-66
2022/01/14 09:44:21;;;;;;;79.73;28.60;;;-2.50;99.90;;;;;;4139896;28;20370;-71
2022/01/14 09:46:25;;;;;;;71.47;30.80;;;-2.50;99.90;;;;;;4140574;28;20272;-58
2022/01/14 09:48:26;;;;;;;71.67;27.53;;;-2.50;99.90;;;;;;4140001;28;20271;-71
2022/01/14 09:50:28;;;;;;;67.53;27.00;;;-2.50;99.90;;;;;;4132429;28;20304;-71
2022/01/14 09:52:30;;;;;;;66.47;26.17;;;-2.40;99.90;;;;;;4123118;28;20819;-58
2022/01/14 09:54:33;;;;;;;68.17;27.90;;;-2.30;99.90;;;;;;4123331;28;20555;-58
2022/01/14 09:56:34;;;;;;;68.60;29.00;;;-2.40;99.90;;;;;;4123172;28;20294;-67
2022/01/14 09:58:41;;;;;;;70.00;28.63;;;-2.30;99.90;;;;;;4128247;28;20357;-69
2022/01/14 10:00:42;;;;;;;73.07;28.23;;;-2.20;99.90;;;;;;4131011;28;20268;-60
2022/01/14 10:02:44;;;;;;;67.57;28.07;;;-2.10;99.90;;;;;;4133978;28;20431;-59
2022/01/14 10:04:45;;;;;;;65.90;26.63;;;-2.00;99.90;;;;;;4132252;28;20264;-67
2022/01/14 10:06:52;;;;;;;73.53;28.17;;;-2.00;99.90;;;;;;4123904;28;20317;-57
2022/01/14 10:09:25;;;;;;;66.57;27.70;;;-1.90;99.90;;;;;;4136920;28;20259;-60
2022/01/14 10:11:26;;;;;;;71.80;27.30;;;-1.70;99.90;;;;;;4134383;28;20295;-65
2022/01/14 10:13:34;;;;;;;65.73;26.47;;;-1.60;99.90;;;;;;4133453;28;20264;-60
2022/01/14 10:15:53;;;;;;;76.00;30.37;;;-1.50;99.90;;;;;;4122737;28;20342;-62
2022/01/14 10:18:00;;;;;;;74.23;30.47;;;-1.50;99.90;;;;;;4123123;28;20791;-62
2022/01/14 10:20:02;;;;;;;72.90;30.57;;;-1.50;99.90;;;;;;4122989;28;20928;-68
2022/01/14 10:22:19;;;;;;;82.00;33.63;;;-1.50;99.90;;;;;;4137372;28;20287;-57
2022/01/14 10:24:27;;;;;;;70.00;30.93;;;-1.50;99.90;;;;;;4139212;28;20330;-64
2022/01/14 10:26:56;;;;;;;68.47;28.97;;;-1.50;99.90;;;;;;4123653;28;20284;-63
2022/01/14 10:29:05;;;;;;;72.67;28.73;;;-1.50;99.90;;;;;;4136074;28;20345;-61
2022/01/14 10:31:07;;;;;;;73.83;33.20;;;-1.50;99.90;;;;;;4139136;28;20302;-57
2022/01/14 10:33:09;;;;;;;75.63;32.27;;;-1.60;99.90;;;;;;4133937;28;20637;-56
2022/01/14 10:35:19;;;;;;;75.87;32.93;;;-1.60;99.90;;;;;;4139156;28;20816;-58
2022/01/14 10:37:20;;;;;;;99.90;36.67;;;-1.60;99.90;;;;;;4139819;28;20352;-58
2022/01/14 10:39:26;;;;;;;94.57;34.57;;;-1.60;99.90;;;;;;4139752;28;20280;-58
2022/01/14 10:41:31;;;;;;;81.90;34.63;;;-1.70;99.90;;;;;;4138920;28;20433;-57
2022/01/14 10:43:35;;;;;;;81.03;33.13;;;-1.70;99.90;;;;;;4137516;28;20414;-66
2022/01/14 10:45:37;;;;;;;94.67;35.47;;;-1.80;99.90;;;;;;4139236;28;20830;-59
2022/01/14 10:47:39;;;;;;;98.23;37.77;;;-1.80;99.90;;;;;;4136813;28;20349;-64